createdAt,value
2023-02-19T00:01:29.124Z,11.24
2023-02-19T00:04:07.457Z,11.25
2023-02-19T00:06:35.572Z,11.25
2023-02-19T00:09:02.734Z,11.26
2023-02-19T00:11:32.266Z,11.23
2023-02-19T00:14:00.502Z,11.21
2023-02-19T00:16:37.009Z,11.13
2023-02-19T00:19:06.500Z,11.11
2023-02-19T00:21:33.684Z,11.04
2023-02-19T00:24:03.534Z,11.00
2023-02-19T00:26:30.664Z,10.96
2023-02-19T00:28:57.922Z,10.92
2023-02-19T00:31:27.092Z,10.94
2023-02-19T00:33:56.736Z,10.91
2023-02-19T00:36:24.282Z,10.88
2023-02-19T00:38:51.551Z,10.87
2023-02-19T00:41:20.194Z,10.89
2023-02-19T00:43:57.037Z,10.87
2023-02-19T00:46:29.243Z,10.86
2023-02-19T00:48:56.518Z,10.85
2023-02-19T00:51:26.531Z,10.83
2023-02-19T00:53:53.147Z,10.84
2023-02-19T00:56:19.995Z,10.87
2023-02-19T00:58:47.017Z,10.90
2023-02-19T01:01:13.743Z,10.89
2023-02-19T01:03:40.739Z,10.93
2023-02-19T01:06:09.390Z,10.96
2023-02-19T01:08:36.558Z,10.91
2023-02-19T01:11:05.276Z,10.90
2023-02-19T01:13:33.497Z,10.80
2023-02-19T01:16:08.298Z,10.82
2023-02-19T01:18:35.416Z,10.86
2023-02-19T01:21:07.222Z,10.88
2023-02-19T01:23:34.061Z,10.81
2023-02-19T01:26:00.691Z,10.78
2023-02-19T01:28:27.225Z,10.84
2023-02-19T01:30:53.892Z,10.89
2023-02-19T01:33:20.554Z,10.90
2023-02-19T01:35:47.086Z,10.90
2023-02-19T01:38:13.587Z,10.87
2023-02-19T01:40:40.097Z,10.89
2023-02-19T01:43:15.940Z,10.91
2023-02-19T01:45:45.869Z,10.91
2023-02-19T01:48:17.548Z,10.90
2023-02-19T01:50:54.183Z,10.89
2023-02-19T01:53:25.943Z,10.88
2023-02-19T01:55:56.237Z,10.90
2023-02-19T01:58:26.231Z,10.88
2023-02-19T02:00:52.885Z,10.88
2023-02-19T02:03:20.373Z,10.86
2023-02-19T02:05:58.029Z,10.84
2023-02-19T02:08:44.908Z,10.87
2023-02-19T02:11:11.817Z,10.86
2023-02-19T02:13:40.259Z,10.83
2023-02-19T02:16:25.414Z,10.80
2023-02-19T02:19:01.838Z,10.72
2023-02-19T02:21:57.314Z,10.68
2023-02-19T02:25:00.952Z,10.51
2023-02-19T02:27:46.557Z,10.38
2023-02-19T02:30:30.253Z,10.28
2023-02-19T02:33:28.595Z,10.23
2023-02-19T02:36:08.921Z,10.19
2023-02-19T02:38:38.813Z,10.15
2023-02-19T02:41:06.687Z,10.09
2023-02-19T02:43:33.612Z,10.06
2023-02-19T02:46:00.327Z,10.00
2023-02-19T02:48:45.732Z,9.94
2023-02-19T02:51:25.733Z,9.89
2023-02-19T02:54:17.059Z,9.84
2023-02-19T02:56:46.217Z,9.79
2023-02-19T02:59:14.616Z,9.75
2023-02-19T03:02:08.686Z,9.71
2023-02-19T03:05:04.191Z,9.69
2023-02-19T03:07:55.568Z,9.65
2023-02-19T03:10:34.042Z,9.62
2023-02-19T03:13:22.123Z,9.62
2023-02-19T03:16:11.852Z,9.57
2023-02-19T03:18:59.801Z,9.51
2023-02-19T03:21:29.002Z,9.41
2023-02-19T03:24:16.604Z,9.37
2023-02-19T03:26:45.360Z,9.30
2023-02-19T03:29:26.228Z,9.26
2023-02-19T03:31:57.769Z,9.20
2023-02-19T03:34:31.821Z,9.14
2023-02-19T03:37:06.507Z,9.09
2023-02-19T03:39:33.340Z,9.05
2023-02-19T03:42:12.101Z,9.01
2023-02-19T03:45:02.366Z,8.99
2023-02-19T03:47:33.870Z,8.97
2023-02-19T03:50:18.709Z,8.92
2023-02-19T03:53:10.620Z,8.88
2023-02-19T03:55:54.113Z,8.82
2023-02-19T03:58:28.699Z,8.76
2023-02-19T04:01:07.429Z,8.74
2023-02-19T04:03:42.714Z,8.73
2023-02-19T04:06:19.917Z,8.71
2023-02-19T04:08:50.056Z,8.66
2023-02-19T04:11:19.277Z,8.69
2023-02-19T04:14:07.177Z,8.68
2023-02-19T04:16:37.190Z,8.69
2023-02-19T04:19:10.286Z,8.65
2023-02-19T04:21:39.512Z,8.67
2023-02-19T04:24:21.928Z,8.67
2023-02-19T04:26:49.038Z,8.68
2023-02-19T04:29:15.552Z,8.65
2023-02-19T04:31:42.125Z,8.60
2023-02-19T04:34:08.662Z,8.56
2023-02-19T04:36:35.334Z,8.51
2023-02-19T04:39:01.936Z,8.47
2023-02-19T04:41:28.547Z,8.40
2023-02-19T04:43:55.189Z,8.39
2023-02-19T04:46:21.801Z,8.35
2023-02-19T04:48:48.396Z,8.31
2023-02-19T04:51:15.000Z,8.29
2023-02-19T04:53:42.783Z,8.25
2023-02-19T04:56:15.395Z,8.23
2023-02-19T04:58:42.948Z,8.25
2023-02-19T05:01:10.763Z,8.21
2023-02-19T05:03:38.031Z,8.20
2023-02-19T05:06:06.624Z,8.17
2023-02-19T05:08:33.680Z,8.16
2023-02-19T05:11:01.863Z,8.12
2023-02-19T05:13:29.156Z,8.11
2023-02-19T05:16:01.492Z,8.07
2023-02-19T05:18:29.632Z,8.04
2023-02-19T05:20:57.818Z,8.01
2023-02-19T05:23:25.275Z,8.00
2023-02-19T05:25:52.319Z,7.96
2023-02-19T05:28:19.396Z,7.93
2023-02-19T05:30:53.010Z,7.90
2023-02-19T05:33:22.332Z,7.89
2023-02-19T05:35:51.221Z,7.89
2023-02-19T05:38:18.828Z,7.86
2023-02-19T05:40:46.112Z,7.83
2023-02-19T05:43:13.652Z,7.83
2023-02-19T05:45:41.803Z,7.81
2023-02-19T05:48:08.748Z,7.80
2023-02-19T05:50:39.635Z,7.78
2023-02-19T05:53:06.523Z,7.78
2023-02-19T05:55:36.802Z,7.75
2023-02-19T05:58:03.944Z,7.76
2023-02-19T06:00:32.829Z,7.74
2023-02-19T06:02:59.567Z,7.76
2023-02-19T06:05:26.382Z,7.76
2023-02-19T06:07:52.910Z,7.74
2023-02-19T06:10:19.714Z,7.74
2023-02-19T06:12:46.235Z,7.74
2023-02-19T06:15:12.912Z,7.71
2023-02-19T06:17:39.668Z,7.73
2023-02-19T06:20:06.588Z,7.73
2023-02-19T06:22:33.560Z,7.72
2023-02-19T06:25:00.070Z,7.71
2023-02-19T06:27:26.630Z,7.73
2023-02-19T06:29:53.201Z,7.71
2023-02-19T06:32:19.975Z,7.72
2023-02-19T06:34:46.558Z,7.71
2023-02-19T06:37:13.129Z,7.72
2023-02-19T06:39:39.661Z,7.70
2023-02-19T06:42:06.161Z,7.69
2023-02-19T06:44:32.792Z,7.65
2023-02-19T06:46:59.304Z,7.60
2023-02-19T06:49:25.881Z,7.57
2023-02-19T06:51:52.458Z,7.55
2023-02-19T06:54:18.981Z,7.53
2023-02-19T06:56:47.059Z,7.51
2023-02-19T06:59:18.837Z,7.46
2023-02-19T07:01:46.240Z,7.40
2023-02-19T07:04:12.777Z,7.35
2023-02-19T07:06:39.716Z,7.34
2023-02-19T07:09:07.499Z,7.29
2023-02-19T07:11:35.668Z,7.22
2023-02-19T07:14:05.167Z,7.15
2023-02-19T07:16:31.842Z,7.07
2023-02-19T07:19:00.372Z,7.07
2023-02-19T07:21:29.260Z,7.00
2023-02-19T07:23:56.461Z,6.94
2023-02-19T07:26:23.706Z,6.92
2023-02-19T07:28:51.435Z,6.89
2023-02-19T07:31:20.289Z,6.85
2023-02-19T07:33:47.440Z,6.78
2023-02-19T07:36:15.536Z,6.76
2023-02-19T07:38:42.055Z,6.73
2023-02-19T07:41:08.757Z,6.72
2023-02-19T07:43:37.457Z,6.69
2023-02-19T07:46:05.993Z,6.67
2023-02-19T07:48:34.224Z,6.63
2023-02-19T07:51:01.808Z,6.62
2023-02-19T07:53:28.879Z,6.62
2023-02-19T07:56:01.149Z,6.57
2023-02-19T07:58:28.421Z,6.60
2023-02-19T08:00:55.274Z,6.60
2023-02-19T08:03:22.057Z,6.59
2023-02-19T08:05:51.479Z,6.61
2023-02-19T08:08:18.045Z,6.61
2023-02-19T08:11:03.311Z,6.65
2023-02-19T08:13:31.372Z,6.67
2023-02-19T08:16:17.107Z,6.76
2023-02-19T08:18:46.110Z,6.88
2023-02-19T08:21:13.324Z,6.96
2023-02-19T08:23:40.355Z,7.04
2023-02-19T08:26:07.466Z,7.12
2023-02-19T08:28:34.067Z,7.19
2023-02-19T08:31:06.963Z,7.25
2023-02-19T08:33:33.776Z,7.32
2023-02-19T08:36:06.169Z,7.40
2023-02-19T08:38:35.868Z,7.47
2023-02-19T08:41:11.284Z,7.50
2023-02-19T08:43:38.597Z,7.54
2023-02-19T08:46:07.139Z,7.58
2023-02-19T08:48:34.174Z,7.59
2023-02-19T08:51:07.174Z,7.63
2023-02-19T08:53:35.379Z,7.64
2023-02-19T08:56:13.768Z,7.66
2023-02-19T08:58:40.615Z,7.67
2023-02-19T09:01:12.308Z,7.69
2023-02-19T09:03:39.300Z,7.73
2023-02-19T09:06:06.179Z,7.75
2023-02-19T09:08:32.917Z,7.79
2023-02-19T09:11:04.578Z,7.80
2023-02-19T09:13:31.115Z,7.82
2023-02-19T09:15:57.898Z,7.86
2023-02-19T09:18:25.975Z,7.92
2023-02-19T09:20:52.533Z,7.98
2023-02-19T09:23:19.308Z,8.06
2023-02-19T09:25:45.954Z,8.17
2023-02-19T09:28:12.482Z,8.28
2023-02-19T09:30:39.038Z,8.39
2023-02-19T09:33:06.130Z,8.52
2023-02-19T09:35:32.656Z,8.63
2023-02-19T09:38:01.009Z,8.71
2023-02-19T09:40:27.872Z,8.78
2023-02-19T09:42:54.449Z,8.84
2023-02-19T09:45:25.219Z,8.92
2023-02-19T09:47:58.049Z,8.99
2023-02-19T09:50:38.398Z,9.08
2023-02-19T09:53:11.798Z,9.16
2023-02-19T09:55:43.545Z,9.22
2023-02-19T09:58:41.768Z,9.30
2023-02-19T10:01:12.634Z,9.35
2023-02-19T10:03:43.270Z,9.41
2023-02-19T10:06:23.717Z,9.47
2023-02-19T10:08:53.432Z,9.50
2023-02-19T10:11:20.032Z,9.55
2023-02-19T10:13:54.779Z,9.60
2023-02-19T10:16:26.665Z,9.63
2023-02-19T10:18:53.631Z,9.67
2023-02-19T10:21:28.221Z,9.72
2023-02-19T10:24:02.801Z,9.74
2023-02-19T10:26:34.711Z,9.76
2023-02-19T10:29:02.055Z,9.79
2023-02-19T10:31:31.730Z,9.80
2023-02-19T10:34:03.160Z,9.85
2023-02-19T10:36:41.201Z,9.90
2023-02-19T10:39:23.650Z,9.96
2023-02-19T10:41:51.447Z,10.04
2023-02-19T10:44:17.893Z,10.14
2023-02-19T10:46:47.140Z,10.22
2023-02-19T10:49:22.763Z,10.33
2023-02-19T10:51:49.672Z,10.42
2023-02-19T10:54:18.989Z,10.48
2023-02-19T10:56:46.352Z,10.53
2023-02-19T10:59:25.894Z,10.58
2023-02-19T11:02:01.542Z,10.63
2023-02-19T11:04:35.188Z,10.66
2023-02-19T11:07:17.372Z,10.69
2023-02-19T11:09:46.373Z,10.73
2023-02-19T11:12:14.700Z,10.79
2023-02-19T11:14:44.519Z,10.82
2023-02-19T11:17:25.051Z,10.89
2023-02-19T11:19:58.598Z,10.93
2023-02-19T11:22:39.107Z,10.99
2023-02-19T11:25:19.411Z,11.06
2023-02-19T11:28:20.698Z,11.17
2023-02-19T11:30:47.950Z,11.27
2023-02-19T11:33:17.461Z,11.35
2023-02-19T11:35:45.027Z,11.42
2023-02-19T11:38:14.680Z,11.49
2023-02-19T11:40:45.762Z,11.53
2023-02-19T11:43:18.167Z,11.58
2023-02-19T11:46:16.028Z,11.63
2023-02-19T11:48:55.551Z,11.71
2023-02-19T11:51:22.450Z,11.78
2023-02-19T11:54:06.497Z,11.89
2023-02-19T11:56:37.213Z,12.00
2023-02-19T11:59:05.251Z,12.10
2023-02-19T12:02:09.623Z,12.20
2023-02-19T12:04:46.110Z,12.27
2023-02-19T12:07:24.620Z,12.33
2023-02-19T12:10:30.794Z,12.41
2023-02-19T12:13:15.437Z,12.52
2023-02-19T12:16:09.957Z,12.63
2023-02-19T12:18:48.541Z,12.76
2023-02-19T12:21:35.431Z,12.88
2023-02-19T12:24:50.265Z,12.99
2023-02-19T12:27:38.451Z,13.07
2023-02-19T12:30:27.110Z,13.12
2023-02-19T12:33:09.310Z,13.17
2023-02-19T12:35:48.556Z,13.24
2023-02-19T12:38:32.482Z,13.30
2023-02-19T12:41:16.382Z,13.35
2023-02-19T12:44:01.117Z,13.43
2023-02-19T12:46:36.638Z,13.55
2023-02-19T12:49:14.244Z,13.65
2023-02-19T12:51:48.784Z,13.72
2023-02-19T12:54:26.124Z,13.80
2023-02-19T12:56:55.642Z,13.88
2023-02-19T12:59:23.268Z,13.98
2023-02-19T13:02:28.372Z,14.18
2023-02-19T13:05:01.225Z,14.35
2023-02-19T13:08:19.308Z,14.50
2023-02-19T13:10:59.407Z,14.65
2023-02-19T13:13:34.354Z,14.73
2023-02-19T13:16:09.879Z,14.81
2023-02-19T13:18:42.963Z,14.87
2023-02-19T13:21:11.203Z,14.99
2023-02-19T13:23:59.697Z,15.09
2023-02-19T13:26:41.493Z,15.19
2023-02-19T13:29:26.744Z,15.28
2023-02-19T13:32:53.517Z,15.43
2023-02-19T13:36:06.049Z,15.58
2023-02-19T13:38:38.145Z,15.73
2023-02-19T13:41:05.049Z,15.81
2023-02-19T13:43:40.148Z,15.89
2023-02-19T13:46:09.824Z,15.95
2023-02-19T13:48:38.660Z,15.99
2023-02-19T13:51:34.502Z,16.00
2023-02-19T13:54:04.697Z,16.00
2023-02-19T13:56:34.236Z,15.99
2023-02-19T13:59:39.141Z,15.94
2023-02-19T14:02:12.430Z,15.88
2023-02-19T14:04:55.647Z,15.81
2023-02-19T14:07:35.528Z,15.73
2023-02-19T14:10:03.124Z,15.67
2023-02-19T14:12:34.748Z,15.60
2023-02-19T14:15:39.047Z,15.54
2023-02-19T14:18:45.081Z,15.48
2023-02-19T14:21:34.080Z,15.40
2023-02-19T14:24:01.825Z,15.37
2023-02-19T14:26:32.198Z,15.36
2023-02-19T14:29:00.954Z,15.38
2023-02-19T14:31:31.226Z,15.42
2023-02-19T14:34:04.332Z,15.00
2023-02-19T14:36:44.275Z,14.71
2023-02-19T14:39:40.369Z,14.87
2023-02-19T14:42:17.266Z,15.08
2023-02-19T14:44:52.419Z,15.17
2023-02-19T14:47:21.994Z,15.24
2023-02-19T14:49:53.894Z,15.26
2023-02-19T14:52:41.114Z,15.27
2023-02-19T14:55:26.066Z,15.27
2023-02-19T14:57:54.712Z,15.28
2023-02-19T15:00:29.934Z,15.26
2023-02-19T15:02:57.723Z,15.26
2023-02-19T15:05:27.527Z,15.24
2023-02-19T15:07:57.057Z,15.23
2023-02-19T15:10:25.023Z,15.21
2023-02-19T15:12:57.978Z,15.17
2023-02-19T15:15:29.159Z,15.16
2023-02-19T15:17:59.109Z,15.14
2023-02-19T15:20:28.899Z,15.12
2023-02-19T15:22:58.442Z,15.09
2023-02-19T15:25:30.530Z,15.05
2023-02-19T15:28:16.998Z,15.04
2023-02-19T15:30:43.540Z,14.98
2023-02-19T15:33:19.868Z,14.95
2023-02-19T15:35:53.827Z,14.91
2023-02-19T15:38:20.780Z,14.87
2023-02-19T15:40:48.778Z,14.84
2023-02-19T15:43:27.791Z,14.81
2023-02-19T15:46:01.384Z,14.77
2023-02-19T15:48:37.909Z,14.74
2023-02-19T15:51:12.775Z,14.70
2023-02-19T15:53:47.671Z,14.66
2023-02-19T15:56:28.140Z,14.62
2023-02-19T15:58:57.472Z,14.55
2023-02-19T16:01:29.747Z,14.49
2023-02-19T16:03:57.020Z,14.45
2023-02-19T16:06:25.562Z,14.39
2023-02-19T16:08:52.006Z,14.30
2023-02-19T16:11:24.531Z,14.24
2023-02-19T16:13:52.062Z,14.18
2023-02-19T16:16:35.075Z,14.09
2023-02-19T16:19:01.998Z,14.03
2023-02-19T16:21:28.996Z,13.96
2023-02-19T16:24:24.965Z,13.87
2023-02-19T16:26:51.534Z,13.79
2023-02-19T16:29:19.741Z,13.71
2023-02-19T16:31:58.828Z,13.66
2023-02-19T16:34:47.057Z,13.56
2023-02-19T16:37:56.278Z,13.50
2023-02-19T16:40:44.494Z,13.40
2023-02-19T16:43:14.059Z,13.31
2023-02-19T16:45:45.650Z,13.28
2023-02-19T16:48:13.517Z,13.14
2023-02-19T16:50:44.046Z,13.08
2023-02-19T16:53:36.692Z,13.04
2023-02-19T16:56:03.326Z,13.00
2023-02-19T16:58:29.951Z,12.94
2023-02-19T17:00:57.379Z,12.89
2023-02-19T17:03:25.661Z,12.82
2023-02-19T17:05:52.788Z,12.76
2023-02-19T17:08:29.558Z,12.76
2023-02-19T17:10:56.333Z,12.80
2023-02-19T17:13:22.853Z,12.82
2023-02-19T17:15:49.391Z,12.70
2023-02-19T17:18:16.059Z,12.60
2023-02-19T17:20:48.025Z,12.55
2023-02-19T17:23:14.847Z,12.52
2023-02-19T17:25:41.391Z,12.49
2023-02-19T17:28:07.904Z,12.47
2023-02-19T17:30:34.990Z,12.43
2023-02-19T17:33:01.722Z,12.43
2023-02-19T17:35:28.276Z,12.40
2023-02-19T17:37:54.850Z,12.27
2023-02-19T17:40:33.060Z,12.23
2023-02-19T17:43:01.517Z,12.22
2023-02-19T17:45:28.651Z,12.17
2023-02-19T17:47:55.240Z,12.16
2023-02-19T17:50:24.534Z,12.12
2023-02-19T17:52:51.159Z,12.07
2023-02-19T17:55:18.552Z,12.04
2023-02-19T17:57:46.681Z,11.97
2023-02-19T18:00:15.429Z,11.91
2023-02-19T18:02:42.430Z,11.92
2023-02-19T18:05:09.135Z,11.88
2023-02-19T18:07:36.144Z,11.83
2023-02-19T18:10:03.253Z,11.81
2023-02-19T18:12:29.972Z,11.81
2023-02-19T18:14:57.240Z,11.74
2023-02-19T18:17:25.070Z,11.78
2023-02-19T18:19:53.424Z,11.73
2023-02-19T18:22:20.663Z,11.75
2023-02-19T18:24:49.238Z,11.68
2023-02-19T18:27:18.545Z,11.64
2023-02-19T18:29:48.681Z,11.59
2023-02-19T18:32:15.371Z,11.54
2023-02-19T18:34:41.968Z,11.51
2023-02-19T18:37:08.477Z,11.50
2023-02-19T18:39:34.988Z,11.45
2023-02-19T18:42:02.262Z,11.44
2023-02-19T18:44:28.860Z,11.40
2023-02-19T18:46:55.517Z,11.38
2023-02-19T18:49:22.227Z,11.31
2023-02-19T18:51:48.961Z,11.27
2023-02-19T18:54:15.705Z,11.23
2023-02-19T18:56:46.744Z,11.22
2023-02-19T18:59:13.676Z,11.18
2023-02-19T19:01:43.233Z,11.14
2023-02-19T19:04:09.861Z,11.13
2023-02-19T19:06:36.574Z,11.06
2023-02-19T19:09:04.196Z,11.01
2023-02-19T19:11:31.085Z,10.93
2023-02-19T19:13:57.954Z,10.94
2023-02-19T19:16:25.973Z,10.92
2023-02-19T19:18:53.331Z,10.88
2023-02-19T19:21:20.544Z,10.82
2023-02-19T19:23:47.324Z,10.78
2023-02-19T19:26:15.074Z,10.79
2023-02-19T19:28:44.564Z,10.73
2023-02-19T19:31:12.899Z,10.68
2023-02-19T19:33:39.732Z,10.64
2023-02-19T19:36:07.132Z,10.55
2023-02-19T19:38:33.615Z,10.49
2023-02-19T19:41:00.345Z,10.42
2023-02-19T19:43:28.760Z,10.35
2023-02-19T19:45:55.751Z,10.32
2023-02-19T19:48:23.500Z,10.29
2023-02-19T19:50:50.272Z,10.28
2023-02-19T19:53:17.022Z,10.22
2023-02-19T19:55:43.943Z,10.22
2023-02-19T19:58:10.528Z,10.19
2023-02-19T20:00:37.092Z,10.15
2023-02-19T20:03:03.861Z,10.15
2023-02-19T20:05:30.522Z,10.10
2023-02-19T20:07:57.087Z,10.05
2023-02-19T20:10:23.706Z,10.02
2023-02-19T20:12:50.213Z,9.98
2023-02-19T20:15:21.915Z,9.98
2023-02-19T20:17:49.027Z,9.93
2023-02-19T20:20:17.925Z,9.89
2023-02-19T20:22:44.611Z,9.87
2023-02-19T20:25:11.532Z,9.87
2023-02-19T20:27:38.102Z,9.83
2023-02-19T20:30:05.893Z,9.82
2023-02-19T20:32:32.571Z,9.80
2023-02-19T20:34:59.091Z,9.77
2023-02-19T20:37:25.576Z,9.76
2023-02-19T20:39:52.704Z,9.72
2023-02-19T20:42:19.250Z,9.68
2023-02-19T20:44:45.733Z,9.64
2023-02-19T20:47:12.410Z,9.64
2023-02-19T20:49:38.914Z,9.65
2023-02-19T20:52:07.215Z,9.59
2023-02-19T20:54:35.673Z,9.56
2023-02-19T20:57:05.277Z,9.54
2023-02-19T20:59:35.414Z,9.54
2023-02-19T21:02:07.003Z,9.49
2023-02-19T21:04:33.665Z,9.45
2023-02-19T21:07:00.499Z,9.44
2023-02-19T21:09:26.991Z,9.43
2023-02-19T21:11:53.741Z,9.40
2023-02-19T21:14:20.470Z,9.37
2023-02-19T21:16:47.148Z,9.37
2023-02-19T21:19:13.724Z,9.32
2023-02-19T21:21:40.501Z,9.31
2023-02-19T21:24:07.342Z,9.27
2023-02-19T21:26:39.148Z,9.27
2023-02-19T21:29:06.889Z,9.25
2023-02-19T21:31:41.333Z,9.21
2023-02-19T21:34:10.073Z,9.21
2023-02-19T21:36:37.046Z,9.19
2023-02-19T21:39:05.492Z,9.16
2023-02-19T21:41:32.577Z,9.15
2023-02-19T21:43:59.180Z,9.13
2023-02-19T21:46:26.103Z,9.12
2023-02-19T21:48:54.950Z,9.12
2023-02-19T21:51:28.319Z,9.15
2023-02-19T21:53:54.874Z,9.15
2023-02-19T21:56:26.076Z,9.16
2023-02-19T21:58:52.904Z,9.16
2023-02-19T22:01:22.642Z,9.20
2023-02-19T22:03:49.236Z,9.22
2023-02-19T22:06:16.348Z,9.25
2023-02-19T22:08:44.315Z,9.30
2023-02-19T22:11:10.971Z,9.34
2023-02-19T22:13:37.488Z,9.36
2023-02-19T22:16:04.226Z,9.39
2023-02-19T22:18:30.789Z,9.40
2023-02-19T22:20:57.612Z,9.39
2023-02-19T22:23:24.375Z,9.38
2023-02-19T22:25:50.956Z,9.36
2023-02-19T22:28:18.663Z,9.35
2023-02-19T22:30:45.162Z,9.35
2023-02-19T22:33:11.718Z,9.33
2023-02-19T22:35:38.243Z,9.32
2023-02-19T22:38:04.786Z,9.31
2023-02-19T22:40:31.345Z,9.29
2023-02-19T22:42:57.848Z,9.30
2023-02-19T22:45:25.697Z,9.28
2023-02-19T22:47:55.969Z,9.30
2023-02-19T22:50:23.232Z,9.26
2023-02-19T22:52:50.263Z,9.23
2023-02-19T22:55:17.415Z,9.26
2023-02-19T22:57:43.908Z,9.22
2023-02-19T23:00:17.172Z,9.21
2023-02-19T23:02:43.668Z,9.19
2023-02-19T23:05:10.237Z,9.13
2023-02-19T23:07:37.931Z,9.09
2023-02-19T23:10:04.784Z,9.14
2023-02-19T23:12:31.290Z,9.13
2023-02-19T23:14:57.851Z,9.11
2023-02-19T23:17:24.327Z,9.11
2023-02-19T23:19:50.831Z,9.14
2023-02-19T23:22:17.633Z,9.12
2023-02-19T23:24:44.140Z,9.13
2023-02-19T23:27:10.647Z,9.11
2023-02-19T23:29:37.199Z,9.09
2023-02-19T23:32:04.033Z,9.12
2023-02-19T23:34:30.584Z,9.21
2023-02-19T23:36:59.606Z,9.25
2023-02-19T23:39:26.497Z,9.30
2023-02-19T23:41:55.288Z,9.35
2023-02-19T23:44:24.336Z,9.38
2023-02-19T23:46:52.275Z,9.40
2023-02-19T23:49:19.308Z,9.41
2023-02-19T23:51:45.907Z,9.44
2023-02-19T23:54:12.592Z,9.44
2023-02-19T23:56:39.304Z,9.46
2023-02-19T23:59:05.939Z,9.46
